Time;durP1;ratioP1;P1;durP2;ratioP2;P2;SDS_P1;SDS_P2;PMS_P1;PMS_P2;Temp;Humidity;BMP_temperature;BMP_pressure;BME280_temperature;BME280_humidity;BME280_pressure;Samples;Min_cycle;Max_cycle;Signal;HPM_P1;HPM_P2
2022/11/09 00:00:51;;;;;;;7.82;1.25;;;12.30;99.90;;;;;;5042225;28;20375;-60
2022/11/09 00:03:17;;;;;;;3.55;1.00;;;12.30;99.90;;;;;;5058941;28;20047;-60
2022/11/09 00:05:43;;;;;;;6.63;1.20;;;12.30;99.90;;;;;;5061713;28;20278;-60
2022/11/09 00:08:10;;;;;;;7.53;1.40;;;12.20;99.90;;;;;;5060019;28;20044;-60
2022/11/09 00:10:37;;;;;;;4.50;1.10;;;12.20;99.90;;;;;;5036175;28;20571;-59
2022/11/09 00:13:03;;;;;;;4.22;1.20;;;12.20;99.90;;;;;;5056915;28;20044;-60
2022/11/09 00:15:29;;;;;;;7.75;1.48;;;12.20;99.90;;;;;;5056863;28;20049;-60
2022/11/09 00:17:55;;;;;;;4.82;1.15;;;12.20;99.90;;;;;;5059899;28;20041;-60
2022/11/09 00:20:20;;;;;;;6.10;1.00;;;12.20;99.90;;;;;;5056643;28;20040;-60
2022/11/09 00:22:47;;;;;;;3.75;1.00;;;12.20;99.90;;;;;;5060523;28;20044;-59
2022/11/09 00:25:13;;;;;;;4.85;1.27;;;12.20;99.90;;;;;;5054530;28;20359;-60
2022/11/09 00:27:39;;;;;;;3.55;1.02;;;12.20;99.90;;;;;;5035297;28;20526;-60
2022/11/09 00:30:05;;;;;;;4.53;1.23;;;12.20;99.90;;;;;;5039607;28;20379;-60
2022/11/09 00:32:31;;;;;;;5.22;1.38;;;12.20;99.90;;;;;;5060790;28;20374;-60
2022/11/09 00:34:57;;;;;;;4.97;1.20;;;12.20;99.90;;;;;;5063526;28;20462;-60
2022/11/09 00:37:22;;;;;;;5.45;1.63;;;12.20;99.90;;;;;;5044826;28;20056;-59
2022/11/09 00:39:48;;;;;;;4.72;0.98;;;12.20;99.90;;;;;;5058900;28;20497;-60
2022/11/09 00:42:14;;;;;;;4.75;1.13;;;12.20;99.90;;;;;;5037309;28;21016;-59
2022/11/09 00:44:40;;;;;;;8.52;1.52;;;12.10;99.90;;;;;;5041253;28;20132;-60
2022/11/09 00:47:05;;;;;;;5.40;1.45;;;12.10;99.90;;;;;;5036775;28;20068;-59
2022/11/09 00:49:31;;;;;;;3.83;1.17;;;12.10;99.90;;;;;;5059819;28;20032;-60
2022/11/09 00:51:57;;;;;;;3.92;1.38;;;12.20;99.90;;;;;;5054872;28;20167;-60
2022/11/09 00:54:22;;;;;;;5.05;1.70;;;12.10;99.90;;;;;;5059951;28;20086;-60
2022/11/09 00:56:48;;;;;;;9.57;1.90;;;12.10;99.90;;;;;;5052412;28;20049;-61
2022/11/09 00:59:14;;;;;;;6.68;2.13;;;12.10;99.90;;;;;;5061712;28;20040;-60
2022/11/09 01:01:39;;;;;;;8.80;2.58;;;12.10;99.90;;;;;;5020902;28;20048;-60
2022/11/09 01:04:05;;;;;;;8.45;2.72;;;12.20;99.90;;;;;;5039920;28;20052;-61
2022/11/09 01:06:31;;;;;;;8.68;2.25;;;12.20;99.90;;;;;;5053893;28;20033;-59
2022/11/09 01:08:57;;;;;;;6.45;2.20;;;12.20;99.90;;;;;;5036283;28;20495;-60
2022/11/09 01:11:23;;;;;;;7.85;2.47;;;12.20;99.90;;;;;;5052144;28;20083;-60
2022/11/09 01:13:49;;;;;;;10.88;2.70;;;12.20;99.90;;;;;;5064593;28;20113;-60
2022/11/09 01:16:17;;;;;;;9.30;2.85;;;12.20;99.90;;;;;;5044895;28;20051;-60
2022/11/09 01:18:43;;;;;;;9.20;3.38;;;12.30;99.90;;;;;;5062571;28;20082;-61
2022/11/09 01:21:11;;;;;;;7.18;3.10;;;12.30;99.90;;;;;;5057933;28;20173;-60
2022/11/09 01:23:38;;;;;;;9.25;2.90;;;12.30;99.90;;;;;;5047905;28;20048;-60
2022/11/09 01:26:07;;;;;;;9.63;3.22;;;12.30;99.90;;;;;;5033053;28;20029;-59
2022/11/09 01:28:33;;;;;;;7.97;2.85;;;12.30;99.90;;;;;;5059495;28;20116;-60
2022/11/09 01:31:06;;;;;;;6.43;2.55;;;12.30;99.90;;;;;;5040537;28;20193;-58
2022/11/09 01:33:32;;;;;;;7.25;2.67;;;12.40;99.90;;;;;;5056377;28;20040;-60
2022/11/09 01:36:05;;;;;;;6.70;2.80;;;12.40;99.90;;;;;;5060945;28;20414;-58
2022/11/09 01:38:31;;;;;;;8.32;2.55;;;12.40;99.90;;;;;;5055113;28;20162;-60
2022/11/09 01:40:57;;;;;;;9.80;2.38;;;12.50;99.90;;;;;;5036999;28;20147;-60
2022/11/09 01:43:23;;;;;;;10.60;3.15;;;12.50;99.90;;;;;;5056157;28;20037;-59
2022/11/09 01:46:09;;;;;;;9.43;2.25;;;12.50;99.90;;;;;;5055493;28;21240;-59
2022/11/09 01:48:49;;;;;;;6.43;2.38;;;12.50;99.90;;;;;;5052072;28;20836;-58
2022/11/09 01:51:26;;;;;;;6.47;2.55;;;12.50;99.90;;;;;;5053713;28;20063;-59
2022/11/09 01:53:59;;;;;;;8.00;2.33;;;12.40;99.90;;;;;;5056432;28;20082;-61
2022/11/09 01:56:26;;;;;;;4.68;1.90;;;12.40;99.90;;;;;;5054555;28;20029;-58
2022/11/09 01:58:56;;;;;;;7.10;2.50;;;12.40;99.90;;;;;;5054408;28;20496;-60
2022/11/09 02:01:22;;;;;;;7.13;2.58;;;12.50;99.90;;;;;;5036465;28;20067;-60
2022/11/09 02:03:55;;;;;;;8.23;2.45;;;12.40;99.90;;;;;;5042151;28;20049;-60
2022/11/09 02:06:24;;;;;;;8.18;2.83;;;12.40;99.90;;;;;;5041115;28;20036;-59
2022/11/09 02:08:54;;;;;;;7.30;2.63;;;12.40;99.90;;;;;;5045539;28;20044;-59
2022/11/09 02:11:22;;;;;;;8.48;3.33;;;12.40;99.90;;;;;;5047424;28;20136;-60
2022/11/09 02:13:52;;;;;;;10.85;3.10;;;12.40;99.90;;;;;;5063761;28;20114;-61
2022/11/09 02:16:18;;;;;;;8.20;2.92;;;12.40;99.90;;;;;;5059970;28;20036;-58
2022/11/09 02:18:52;;;;;;;11.57;3.42;;;12.40;99.90;;;;;;5059685;28;20083;-61
2022/11/09 02:21:19;;;;;;;11.82;3.40;;;12.40;99.90;;;;;;5061135;28;20098;-60
2022/11/09 02:23:45;;;;;;;9.05;3.13;;;12.40;99.90;;;;;;5062063;28;20429;-59
2022/11/09 02:26:17;;;;;;;10.98;3.13;;;12.40;99.90;;;;;;5045473;28;20406;-59
2022/11/09 02:28:43;;;;;;;8.20;3.00;;;12.40;99.90;;;;;;5053805;28;20430;-60
2022/11/09 02:31:12;;;;;;;9.18;3.28;;;12.30;99.90;;;;;;5061592;28;20115;-59
2022/11/09 02:33:50;;;;;;;8.05;3.13;;;12.30;99.90;;;;;;5067020;28;20525;-60
2022/11/09 02:36:16;;;;;;;12.63;3.10;;;12.30;99.90;;;;;;5060612;28;20403;-59
2022/11/09 02:38:42;;;;;;;12.02;3.40;;;12.30;99.90;;;;;;5054321;28;20098;-59
2022/11/09 02:41:10;;;;;;;12.00;3.05;;;12.20;99.90;;;;;;5052525;28;20056;-60
2022/11/09 02:43:36;;;;;;;6.43;2.80;;;12.20;99.90;;;;;;5061767;28;20040;-59
2022/11/09 02:46:02;;;;;;;9.60;3.28;;;12.20;99.90;;;;;;5062024;28;20032;-59
2022/11/09 02:48:28;;;;;;;10.98;3.33;;;12.20;99.90;;;;;;5046042;28;20037;-59
2022/11/09 02:50:54;;;;;;;13.60;3.03;;;12.20;99.90;;;;;;5065742;28;20036;-59
2022/11/09 02:53:19;;;;;;;13.27;3.22;;;12.20;99.90;;;;;;5063261;28;20378;-60
2022/11/09 02:55:45;;;;;;;10.70;2.80;;;12.10;99.90;;;;;;5044495;28;20135;-60
2022/11/09 02:58:11;;;;;;;8.77;2.88;;;12.10;99.90;;;;;;5058964;28;20400;-58
2022/11/09 03:00:36;;;;;;;9.20;3.03;;;12.10;99.90;;;;;;5028630;28;20090;-60
2022/11/09 03:03:03;;;;;;;13.55;3.22;;;12.10;99.90;;;;;;5039523;28;20888;-61
2022/11/09 03:05:29;;;;;;;8.95;3.58;;;12.10;99.90;;;;;;5062163;28;20516;-60
2022/11/09 03:07:55;;;;;;;12.65;3.05;;;12.10;99.90;;;;;;5069028;28;20047;-60
2022/11/09 03:10:21;;;;;;;10.13;2.42;;;12.10;99.90;;;;;;5067126;28;20531;-61
2022/11/09 03:12:47;;;;;;;12.05;2.53;;;12.10;99.90;;;;;;5063625;28;20131;-60
2022/11/09 03:15:13;;;;;;;11.95;3.28;;;12.10;99.90;;;;;;5063851;28;20427;-61
2022/11/09 03:17:39;;;;;;;11.52;2.78;;;12.10;99.90;;;;;;5040698;28;20533;-60
2022/11/09 03:20:06;;;;;;;8.63;2.47;;;12.10;99.90;;;;;;5064150;28;20127;-60
2022/11/09 03:22:32;;;;;;;8.20;2.35;;;12.10;99.90;;;;;;5042524;28;20436;-60
2022/11/09 03:24:57;;;;;;;12.57;2.90;;;12.00;99.90;;;;;;5045554;28;20028;-60
2022/11/09 03:27:23;;;;;;;9.75;2.15;;;12.00;99.90;;;;;;5056661;28;20472;-61
2022/11/09 03:29:49;;;;;;;9.93;2.70;;;12.00;99.90;;;;;;5060507;28;20583;-59
2022/11/09 03:32:14;;;;;;;8.50;2.53;;;12.00;99.90;;;;;;5045486;28;20028;-60
2022/11/09 03:34:40;;;;;;;8.20;2.40;;;12.00;99.90;;;;;;5066271;28;20056;-60
2022/11/09 03:37:06;;;;;;;15.38;2.50;;;12.00;99.90;;;;;;5045424;28;20557;-60
2022/11/09 03:39:32;;;;;;;14.40;3.20;;;12.00;99.90;;;;;;5049254;28;20048;-59
2022/11/09 03:41:58;;;;;;;10.43;2.40;;;12.10;99.90;;;;;;5038696;28;20080;-58
2022/11/09 03:44:23;;;;;;;9.95;2.83;;;12.10;99.90;;;;;;5044681;28;20500;-60
2022/11/09 03:46:49;;;;;;;9.20;2.28;;;12.10;99.90;;;;;;5039410;28;20123;-59
2022/11/09 03:49:15;;;;;;;12.43;2.42;;;12.10;99.90;;;;;;5063065;28;20048;-60
2022/11/09 03:51:40;;;;;;;9.15;2.03;;;12.10;99.90;;;;;;5058815;28;20113;-60
2022/11/09 03:54:06;;;;;;;13.00;2.25;;;12.10;99.90;;;;;;5060651;28;20047;-60
2022/11/09 03:56:32;;;;;;;9.55;2.30;;;12.00;99.90;;;;;;5061944;28;20086;-60
2022/11/09 03:58:58;;;;;;;8.75;2.28;;;12.10;99.90;;;;;;5058118;28;20051;-60
2022/11/09 04:01:23;;;;;;;12.50;2.47;;;12.10;99.90;;;;;;5060028;28;20064;-60
2022/11/09 04:03:49;;;;;;;11.55;2.88;;;12.10;99.90;;;;;;5052835;28;20427;-59
2022/11/09 04:06:15;;;;;;;13.32;3.47;;;12.10;99.90;;;;;;5057860;28;20044;-61
2022/11/09 04:08:40;;;;;;;9.98;2.72;;;12.10;99.90;;;;;;5046434;28;20046;-60
2022/11/09 04:11:06;;;;;;;18.20;3.47;;;12.10;99.90;;;;;;5057548;28;20044;-60
2022/11/09 04:13:32;;;;;;;12.15;3.03;;;12.10;99.90;;;;;;5061464;28;20052;-60
2022/11/09 04:15:57;;;;;;;16.98;3.03;;;12.10;99.90;;;;;;5051637;28;20045;-60
2022/11/09 04:18:23;;;;;;;8.98;2.08;;;12.10;99.90;;;;;;5039294;28;20037;-61
2022/11/09 04:20:49;;;;;;;10.30;2.58;;;12.10;99.90;;;;;;5042064;28;20060;-59
2022/11/09 04:23:14;;;;;;;9.88;2.92;;;12.10;99.90;;;;;;5056446;28;20539;-60
2022/11/09 04:25:41;;;;;;;13.60;3.05;;;12.10;99.90;;;;;;5044862;28;20040;-58
2022/11/09 04:28:10;;;;;;;11.63;2.25;;;12.10;99.90;;;;;;5034990;28;20041;-60
2022/11/09 04:30:37;;;;;;;22.83;3.70;;;12.10;99.90;;;;;;5057329;28;20037;-60
2022/11/09 04:33:03;;;;;;;11.32;2.78;;;12.10;99.90;;;;;;5056133;28;20503;-60
2022/11/09 04:35:32;;;;;;;16.58;2.78;;;12.10;99.90;;;;;;5058251;28;20210;-59
2022/11/09 04:38:11;;;;;;;12.25;2.63;;;12.10;99.90;;;;;;5039452;28;20044;-60
2022/11/09 04:40:37;;;;;;;10.20;2.30;;;12.10;99.90;;;;;;5042215;28;20491;-61
2022/11/09 04:43:05;;;;;;;13.32;2.55;;;12.00;99.90;;;;;;5055042;28;20044;-60
2022/11/09 04:45:33;;;;;;;12.05;3.22;;;12.00;99.90;;;;;;5063167;28;20395;-60
2022/11/09 04:50:40;;;;;;;8.23;2.15;;;12.00;99.90;;;;;;5053284;28;20203;-62
2022/11/09 04:53:08;;;;;;;15.65;3.80;;;12.00;99.90;;;;;;5024253;28;20459;-62
2022/11/09 04:55:35;;;;;;;11.90;2.28;;;12.00;99.90;;;;;;5037515;28;20565;-61
2022/11/09 04:58:00;;;;;;;13.93;2.42;;;12.00;99.90;;;;;;5025849;28;20036;-65
2022/11/09 05:00:26;;;;;;;14.93;2.95;;;12.00;99.90;;;;;;5039716;28;20472;-63
2022/11/09 05:02:52;;;;;;;11.70;2.22;;;11.90;99.90;;;;;;5040138;28;20045;-60
2022/11/09 05:05:17;;;;;;;13.65;2.55;;;12.00;99.90;;;;;;5037877;28;20071;-61
2022/11/09 05:07:43;;;;;;;16.67;2.63;;;12.00;99.90;;;;;;5044350;28;20419;-64
2022/11/09 05:10:09;;;;;;;14.07;2.83;;;12.00;99.90;;;;;;5034717;28;20107;-61
2022/11/09 05:12:35;;;;;;;14.77;3.22;;;11.90;99.90;;;;;;5024297;28;20044;-60
2022/11/09 05:15:00;;;;;;;11.13;2.00;;;12.00;99.90;;;;;;5040931;28;20041;-62
2022/11/09 05:17:26;;;;;;;13.98;3.08;;;12.00;99.90;;;;;;5024313;28;20037;-61
2022/11/09 05:19:52;;;;;;;16.40;2.13;;;12.00;99.90;;;;;;5038796;28;20032;-62
2022/11/09 05:25:01;;;;;;;11.13;2.45;;;12.00;99.90;;;;;;5034147;28;20053;-61
2022/11/09 05:27:27;;;;;;;13.68;2.55;;;12.00;99.90;;;;;;5024768;28;20033;-61
2022/11/09 05:29:53;;;;;;;12.20;2.67;;;12.00;99.90;;;;;;5038503;28;20041;-62
2022/11/09 05:32:18;;;;;;;17.63;2.75;;;12.00;99.90;;;;;;5024903;28;20038;-62
2022/11/09 05:34:44;;;;;;;13.40;3.22;;;12.00;99.90;;;;;;5045485;28;20731;-61
2022/11/09 05:37:10;;;;;;;14.32;2.13;;;12.00;99.90;;;;;;5046588;28;20120;-61
2022/11/09 05:39:36;;;;;;;13.63;2.22;;;12.00;99.90;;;;;;5025365;28;20385;-63
2022/11/09 05:42:01;;;;;;;14.77;3.17;;;12.00;99.90;;;;;;5024564;28;20124;-66
2022/11/09 05:44:27;;;;;;;16.70;3.25;;;12.00;99.90;;;;;;5008166;28;20037;-60
2022/11/09 05:46:53;;;;;;;13.88;2.70;;;11.90;99.90;;;;;;5004640;28;20592;-59
2022/11/09 05:49:18;;;;;;;12.25;2.72;;;11.90;99.90;;;;;;5022257;28;20484;-61
2022/11/09 05:51:44;;;;;;;11.77;2.83;;;11.90;99.90;;;;;;5019722;28;20056;-63
2022/11/09 05:54:10;;;;;;;13.05;2.88;;;11.90;99.90;;;;;;5032731;28;20033;-61
2022/11/09 05:56:36;;;;;;;6.13;2.30;;;11.90;99.90;;;;;;5039724;28;20681;-65
2022/11/09 05:59:02;;;;;;;9.23;2.85;;;11.90;99.90;;;;;;5033940;28;20094;-61
2022/11/09 06:01:27;;;;;;;13.68;2.92;;;11.90;99.90;;;;;;5034862;28;20047;-61
2022/11/09 06:03:53;;;;;;;17.80;3.67;;;11.80;99.90;;;;;;5036792;28;20034;-61
2022/11/09 06:06:19;;;;;;;9.65;2.45;;;11.80;99.90;;;;;;5021356;28;20061;-62
2022/11/09 06:08:45;;;;;;;9.25;2.50;;;11.80;99.90;;;;;;5005681;28;20511;-62
2022/11/09 06:11:12;;;;;;;16.10;2.75;;;11.80;99.90;;;;;;5036761;28;20279;-61
2022/11/09 06:13:38;;;;;;;12.30;2.72;;;11.80;99.90;;;;;;5033403;28;20500;-64
2022/11/09 06:16:04;;;;;;;8.93;2.22;;;11.80;99.90;;;;;;5018922;28;20037;-64
2022/11/09 06:18:32;;;;;;;11.93;3.17;;;11.80;99.90;;;;;;5037576;28;20108;-61
2022/11/09 06:21:00;;;;;;;8.05;2.67;;;11.80;99.90;;;;;;5022555;28;20037;-61
2022/11/09 06:23:28;;;;;;;13.95;3.13;;;11.80;99.90;;;;;;5038294;28;20296;-63
2022/11/09 06:26:02;;;;;;;8.75;2.25;;;11.80;99.90;;;;;;5009217;28;20373;-61
2022/11/09 06:28:28;;;;;;;12.30;3.10;;;11.80;99.90;;;;;;5021842;28;20070;-62
2022/11/09 06:30:58;;;;;;;9.27;2.50;;;11.80;99.90;;;;;;5007736;28;20041;-60
2022/11/09 06:33:25;;;;;;;12.48;2.88;;;11.70;99.90;;;;;;5037092;28;20442;-61
2022/11/09 06:35:51;;;;;;;11.07;2.25;;;11.70;99.90;;;;;;5041807;28;20527;-60
2022/11/09 06:38:16;;;;;;;12.82;2.10;;;11.70;99.90;;;;;;5039384;28;20074;-62
2022/11/09 06:40:42;;;;;;;13.00;2.83;;;11.70;99.90;;;;;;5019266;28;20037;-60
2022/11/09 06:43:09;;;;;;;12.60;2.25;;;11.70;99.90;;;;;;5041248;28;20131;-62
2022/11/09 06:45:34;;;;;;;9.73;2.65;;;11.70;99.90;;;;;;5040088;28;20492;-62
2022/11/09 06:48:02;;;;;;;9.48;2.35;;;11.70;99.90;;;;;;5023960;28;20133;-62
2022/11/09 06:50:31;;;;;;;11.55;2.60;;;11.70;99.90;;;;;;5040838;28;20044;-62
2022/11/09 06:52:59;;;;;;;10.63;2.35;;;11.60;99.90;;;;;;5023643;28;20057;-61
2022/11/09 06:55:30;;;;;;;12.73;2.35;;;11.60;99.90;;;;;;5040060;28;20040;-60
2022/11/09 06:57:56;;;;;;;11.07;2.60;;;11.60;99.90;;;;;;5015460;28;20306;-62
2022/11/09 07:00:22;;;;;;;10.07;3.13;;;11.60;99.90;;;;;;5028799;28;20033;-61
2022/11/09 07:02:48;;;;;;;14.70;3.30;;;11.60;99.90;;;;;;5019146;28;20053;-61
2022/11/09 07:05:14;;;;;;;9.55;2.33;;;11.60;99.90;;;;;;5019819;28;20041;-60
2022/11/09 07:07:40;;;;;;;13.82;2.35;;;11.60;99.90;;;;;;5025957;28;20080;-61
2022/11/09 07:10:06;;;;;;;9.30;2.40;;;11.60;99.90;;;;;;5040337;28;20046;-63
2022/11/09 07:12:33;;;;;;;12.30;2.65;;;11.60;99.90;;;;;;5012860;28;20042;-61
2022/11/09 07:14:59;;;;;;;8.73;2.63;;;11.50;99.90;;;;;;5034614;28;20098;-60
2022/11/09 07:17:25;;;;;;;9.30;2.22;;;11.60;99.90;;;;;;5023408;28;20135;-60
2022/11/09 07:19:50;;;;;;;8.07;1.90;;;11.60;99.90;;;;;;5038649;28;20048;-62
2022/11/09 07:22:16;;;;;;;8.80;2.17;;;11.50;99.90;;;;;;5018402;28;20500;-63
2022/11/09 07:24:42;;;;;;;13.52;2.20;;;11.60;99.90;;;;;;5033817;28;20134;-60
2022/11/09 07:27:08;;;;;;;8.43;2.40;;;11.50;99.90;;;;;;5040301;28;20042;-59
2022/11/09 07:29:33;;;;;;;9.85;2.70;;;11.60;99.90;;;;;;5041578;28;20495;-58
2022/11/09 07:31:59;;;;;;;8.95;2.22;;;11.60;99.90;;;;;;5029362;28;20029;-60
2022/11/09 07:34:25;;;;;;;8.80;1.98;;;11.60;99.90;;;;;;5025650;28;20511;-60
2022/11/09 07:36:54;;;;;;;13.45;2.95;;;11.60;99.90;;;;;;5028723;28;20041;-60
2022/11/09 07:39:20;;;;;;;7.05;2.25;;;11.60;99.90;;;;;;5040485;28;20479;-60
2022/11/09 07:41:48;;;;;;;9.43;1.92;;;11.60;99.90;;;;;;5036442;28;20517;-60
2022/11/09 07:44:17;;;;;;;9.88;2.50;;;11.60;99.90;;;;;;5039016;28;20440;-58
2022/11/09 07:46:45;;;;;;;8.93;2.42;;;11.60;99.90;;;;;;5040269;28;20167;-60
2022/11/09 07:49:12;;;;;;;10.10;2.50;;;11.60;99.90;;;;;;5040412;28;20541;-60
2022/11/09 07:51:39;;;;;;;14.65;3.20;;;11.60;99.90;;;;;;5007977;28;20246;-61
2022/11/09 07:54:05;;;;;;;8.75;2.63;;;11.70;99.90;;;;;;5020381;28;20059;-60
2022/11/09 07:56:31;;;;;;;9.77;2.80;;;11.70;99.90;;;;;;5036446;28;20044;-60
2022/11/09 07:58:56;;;;;;;12.80;2.78;;;11.70;99.90;;;;;;5033056;28;20040;-60
2022/11/09 08:01:22;;;;;;;12.23;3.00;;;11.80;99.90;;;;;;5006185;28;20029;-60
2022/11/09 08:03:48;;;;;;;11.43;2.53;;;11.80;99.90;;;;;;5039881;28;20048;-60
2022/11/09 08:06:14;;;;;;;10.25;2.47;;;11.90;99.90;;;;;;5023789;28;20433;-59
2022/11/09 08:08:39;;;;;;;14.23;2.83;;;11.90;99.90;;;;;;5026678;28;20512;-59
2022/11/09 08:11:05;;;;;;;7.68;2.42;;;11.90;99.90;;;;;;5022969;28;20055;-60
2022/11/09 08:13:31;;;;;;;11.60;2.50;;;12.00;99.90;;;;;;5010818;28;20048;-60
2022/11/09 08:16:01;;;;;;;9.50;2.83;;;12.00;99.90;;;;;;5041667;28;20420;-57
2022/11/09 08:18:27;;;;;;;8.35;2.17;;;12.10;99.90;;;;;;5043372;28;20041;-59
2022/11/09 08:20:53;;;;;;;8.30;2.20;;;12.10;99.90;;;;;;5040363;28;20050;-58
2022/11/09 08:23:20;;;;;;;18.13;2.95;;;12.20;99.90;;;;;;5027265;28;20059;-60
2022/11/09 08:25:50;;;;;;;8.35;2.72;;;12.20;99.90;;;;;;5042613;28;20051;-60
2022/11/09 08:28:15;;;;;;;8.23;2.30;;;12.10;99.90;;;;;;5018281;28;20057;-60
2022/11/09 08:30:42;;;;;;;8.98;2.85;;;12.10;99.90;;;;;;5026062;28;20041;-60
2022/11/09 08:33:09;;;;;;;11.80;2.40;;;12.10;99.90;;;;;;5040171;28;20269;-58
2022/11/09 08:35:35;;;;;;;17.20;3.13;;;12.10;99.90;;;;;;5040022;28;20564;-61
2022/11/09 08:38:02;;;;;;;12.77;3.40;;;12.20;99.90;;;;;;5038850;28;20032;-60
2022/11/09 08:40:29;;;;;;;13.48;2.85;;;12.20;99.90;;;;;;5038484;28;20298;-60
2022/11/09 08:42:59;;;;;;;10.52;2.72;;;12.30;99.90;;;;;;5004448;28;20053;-60
2022/11/09 08:45:24;;;;;;;10.77;2.33;;;12.40;99.90;;;;;;5009934;28;20167;-60
2022/11/09 08:47:57;;;;;;;10.05;2.63;;;12.50;99.90;;;;;;5037424;28;20060;-60
2022/11/09 08:50:22;;;;;;;17.10;3.30;;;12.70;99.90;;;;;;5040148;28;20029;-60
2022/11/09 08:52:48;;;;;;;15.52;3.03;;;12.80;99.90;;;;;;5036200;28;20040;-59
2022/11/09 08:55:14;;;;;;;13.98;2.92;;;12.80;99.90;;;;;;5035903;28;20330;-60
2022/11/09 08:57:39;;;;;;;16.23;2.92;;;12.80;99.90;;;;;;5042412;28;20141;-57
2022/11/09 09:00:06;;;;;;;14.80;3.05;;;12.90;99.90;;;;;;5018883;28;20175;-60
2022/11/09 09:02:32;;;;;;;6.50;2.22;;;12.90;99.90;;;;;;5040944;28;20124;-60
2022/11/09 09:04:57;;;;;;;10.38;2.45;;;13.00;99.90;;;;;;5000145;28;20182;-60
2022/11/09 09:07:23;;;;;;;15.23;3.10;;;13.10;99.90;;;;;;5038585;28;20112;-58
2022/11/09 09:09:49;;;;;;;9.10;2.30;;;13.10;99.90;;;;;;5016876;28;20041;-59
2022/11/09 09:12:14;;;;;;;9.65;2.70;;;13.10;99.90;;;;;;5023739;28;20037;-59
2022/11/09 09:14:40;;;;;;;13.63;2.60;;;13.10;99.90;;;;;;5024085;28;20044;-61
2022/11/09 09:17:06;;;;;;;11.43;2.22;;;13.20;99.90;;;;;;5025897;28;20068;-60
2022/11/09 09:19:32;;;;;;;11.15;2.75;;;13.20;99.90;;;;;;5030374;28;20475;-60
2022/11/09 09:21:58;;;;;;;9.60;2.15;;;13.20;99.90;;;;;;5027640;28;20095;-60
2022/11/09 09:24:24;;;;;;;8.65;2.42;;;13.30;99.90;;;;;;5046863;28;20519;-60
2022/11/09 09:26:49;;;;;;;6.65;2.25;;;13.30;99.90;;;;;;5041906;28;20071;-61
2022/11/09 09:29:15;;;;;;;9.23;2.25;;;13.30;99.90;;;;;;5038203;28;20128;-60
2022/11/09 09:31:41;;;;;;;14.25;2.97;;;13.30;99.90;;;;;;5020145;28;20191;-60
2022/11/09 09:34:06;;;;;;;9.10;2.13;;;13.30;99.90;;;;;;5022290;28;20043;-62
2022/11/09 09:36:34;;;;;;;9.18;2.13;;;13.40;99.90;;;;;;5033338;28;20499;-60
2022/11/09 09:39:00;;;;;;;8.63;3.10;;;13.50;99.90;;;;;;5033254;28;20852;-60
2022/11/09 09:41:40;;;;;;;7.65;2.30;;;13.60;99.90;;;;;;5036066;28;20044;-59
2022/11/09 09:44:33;;;;;;;10.65;2.13;;;13.60;99.90;;;;;;5031046;28;20037;-59
2022/11/09 09:47:41;;;;;;;11.95;3.13;;;13.80;99.90;;;;;;5034887;28;20049;-58
2022/11/09 09:50:21;;;;;;;15.13;2.53;;;13.90;99.90;;;;;;5039725;28;20068;-60
2022/11/09 09:53:14;;;;;;;7.57;2.63;;;14.00;99.90;;;;;;5034930;28;20052;-60
2022/11/09 09:55:44;;;;;;;13.32;3.13;;;14.10;99.90;;;;;;5035206;28;20043;-58
2022/11/09 09:58:26;;;;;;;7.40;2.33;;;14.20;99.90;;;;;;5017916;28;20033;-60
2022/11/09 10:00:57;;;;;;;12.90;3.08;;;14.30;99.90;;;;;;5036794;28;20041;-58
2022/11/09 10:03:23;;;;;;;7.57;2.38;;;14.30;99.90;;;;;;5036429;28;20121;-61
2022/11/09 10:06:00;;;;;;;8.93;2.35;;;14.40;99.90;;;;;;5016278;28;20116;-60
2022/11/09 10:08:34;;;;;;;10.48;2.88;;;14.50;99.90;;;;;;5017931;28;20488;-60
2022/11/09 10:11:21;;;;;;;11.55;2.92;;;14.50;99.90;;;;;;5032869;28;20624;-60
2022/11/09 10:14:24;;;;;;;9.43;3.47;;;14.50;99.90;;;;;;5017100;28;20187;-60
2022/11/09 10:17:43;;;;;;;13.48;3.00;;;14.50;99.90;;;;;;5038794;28;20064;-60
2022/11/09 10:20:20;;;;;;;8.23;2.50;;;14.50;99.90;;;;;;5005117;28;20500;-60
2022/11/09 10:23:31;;;;;;;10.25;2.70;;;14.60;99.90;;;;;;5036835;28;20038;-60
2022/11/09 10:26:11;;;;;;;10.95;4.10;;;14.60;99.90;;;;;;5007560;28;20040;-60
2022/11/09 10:28:41;;;;;;;9.68;4.05;;;14.50;99.90;;;;;;5043023;28;20069;-60
2022/11/09 10:31:21;;;;;;;14.48;3.75;;;14.30;99.90;;;;;;5021972;28;20059;-60
2022/11/09 10:33:56;;;;;;;12.02;3.75;;;14.30;99.90;;;;;;5023437;28;20102;-61
2022/11/09 10:36:44;;;;;;;12.48;3.67;;;14.20;99.90;;;;;;5041839;28;20041;-59
2022/11/09 10:39:13;;;;;;;11.65;3.17;;;14.10;99.90;;;;;;5005303;28;20111;-59
2022/11/09 10:41:43;;;;;;;11.65;4.13;;;14.00;99.90;;;;;;5047063;28;20598;-59
2022/11/09 10:44:16;;;;;;;11.70;3.40;;;14.00;99.90;;;;;;5036106;28;20049;-60
2022/11/09 10:47:01;;;;;;;;;;;14.00;99.90;;;;;;5042114;28;20048;-60
2022/11/09 10:49:26;;;;;;;9.55;3.72;;;13.90;99.90;;;;;;5041295;28;19924;-60
2022/11/09 10:51:52;;;;;;;12.18;3.65;;;14.00;99.90;;;;;;5033985;23;20493;-79
2022/11/09 10:54:22;;;;;;;11.20;3.80;;;14.00;99.90;;;;;;5000385;28;20038;-81
2022/11/09 10:57:10;;;;;;;14.50;3.60;;;14.00;99.90;;;;;;5011639;28;20041;-83
2022/11/09 10:59:42;;;;;;;10.15;3.33;;;14.00;99.90;;;;;;5002526;28;20421;-82
2022/11/09 11:02:26;;;;;;;10.38;3.58;;;14.00;99.90;;;;;;5008176;28;20041;-84
2022/11/09 11:05:03;;;;;;;10.25;3.70;;;14.10;99.90;;;;;;5034098;28;20056;-78
2022/11/09 11:07:33;;;;;;;8.25;3.15;;;14.10;99.90;;;;;;5025842;28;20049;-83
2022/11/09 11:10:17;;;;;;;14.38;3.25;;;14.10;99.90;;;;;;5011295;28;20072;-80
2022/11/09 11:12:50;;;;;;;11.90;3.10;;;14.00;99.90;;;;;;5007898;28;20041;-81
2022/11/09 11:15:20;;;;;;;8.63;3.35;;;14.00;99.90;;;;;;5009926;28;20295;-81
2022/11/09 11:17:46;;;;;;;10.57;3.80;;;14.00;99.90;;;;;;5029040;28;20148;-81
2022/11/09 11:20:28;;;;;;;15.55;3.90;;;14.00;99.90;;;;;;5019407;28;20166;-78
2022/11/09 11:23:15;;;;;;;13.00;3.22;;;13.90;99.90;;;;;;5021754;28;20041;-83
2022/11/09 11:25:54;;;;;;;10.93;4.22;;;13.90;99.90;;;;;;4999244;28;20119;-82
2022/11/09 11:28:22;;;;;;;10.68;3.28;;;13.80;99.90;;;;;;5023729;28;20127;-84
2022/11/09 11:30:48;;;;;;;11.77;3.17;;;13.80;99.90;;;;;;5018761;28;20636;-84
2022/11/09 11:33:17;;;;;;;11.18;3.63;;;13.80;99.90;;;;;;5006004;28;20057;-79
2022/11/09 11:35:53;;;;;;;13.50;4.32;;;13.80;99.90;;;;;;5026876;28;20095;-82
2022/11/09 11:38:19;;;;;;;13.57;3.80;;;13.80;99.90;;;;;;5019190;28;20100;-80
2022/11/09 11:41:11;;;;;;;11.70;3.40;;;13.70;99.90;;;;;;5031034;28;20549;-82
2022/11/09 11:43:49;;;;;;;12.45;3.28;;;13.70;99.90;;;;;;5019228;28;20077;-82
2022/11/09 11:46:53;;;;;;;12.63;3.92;;;13.70;99.90;;;;;;5025588;28;20311;-83
2022/11/09 11:49:53;;;;;;;20.60;3.97;;;13.70;99.90;;;;;;5011214;28;20114;-83
2022/11/09 11:52:22;;;;;;;13.35;3.60;;;13.50;99.90;;;;;;5027192;28;20085;-82
2022/11/09 11:55:11;;;;;;;6.93;3.35;;;13.50;99.90;;;;;;5027823;28;20727;-81
2022/11/09 11:58:02;;;;;;;11.93;4.15;;;13.40;99.90;;;;;;4990776;28;20045;-83
2022/11/09 12:00:31;;;;;;;15.70;3.42;;;13.40;99.90;;;;;;5011219;28;20132;-81
2022/11/09 12:03:44;;;;;;;15.93;4.25;;;13.30;99.90;;;;;;5008996;28;20036;-83
2022/11/09 12:06:30;;;;;;;17.38;3.72;;;13.30;99.90;;;;;;5031525;28;20041;-81
2022/11/09 12:09:18;;;;;;;13.10;3.97;;;13.20;99.90;;;;;;5024193;28;20663;-84
2022/11/09 12:12:22;;;;;;;14.57;4.72;;;13.10;99.90;;;;;;5022702;28;20052;-84
2022/11/09 12:14:47;;;;;;;12.88;4.05;;;13.10;99.90;;;;;;4948506;28;20149;-80
2022/11/09 12:17:29;;;;;;;14.18;3.97;;;13.10;99.90;;;;;;5006977;28;20132;-83
2022/11/09 12:20:33;;;;;;;14.02;3.80;;;13.10;99.90;;;;;;5022656;28;20033;-83
2022/11/09 12:23:36;;;;;;;12.70;3.87;;;13.00;99.90;;;;;;5027458;28;20560;-83
2022/11/09 12:26:26;;;;;;;11.70;3.88;;;13.10;99.90;;;;;;4967740;28;20051;-80
2022/11/09 12:29:11;;;;;;;12.68;3.97;;;13.00;99.90;;;;;;5020616;28;20037;-82
2022/11/09 12:31:55;;;;;;;11.75;3.72;;;12.90;99.90;;;;;;5012439;28;20048;-83
2022/11/09 12:34:42;;;;;;;7.22;2.40;;;12.80;99.90;;;;;;5010683;28;21221;-83
2022/11/09 12:37:26;;;;;;;6.18;1.70;;;12.60;99.90;;;;;;5026621;28;20045;-82
2022/11/09 12:39:53;;;;;;;4.85;1.88;;;12.50;99.90;;;;;;5024667;28;20041;-82
2022/11/09 12:42:29;;;;;;;3.45;0.55;;;12.30;99.90;;;;;;5023687;28;20108;-82
2022/11/09 12:45:34;;;;;;;2.42;0.75;;;12.20;99.90;;;;;;5024751;28;20117;-81
2022/11/09 12:48:23;;;;;;;;;;;12.10;99.90;;;;;;5020839;28;20029;-82
2022/11/09 12:50:50;;;;;;;2.78;0.60;;;12.00;99.90;;;;;;4953557;28;1123179;-83
2022/11/09 12:53:18;;;;;;;5.10;0.77;;;11.90;99.90;;;;;;5000599;28;20069;-83
2022/11/09 12:55:57;;;;;;;4.88;1.15;;;11.90;99.90;;;;;;4993276;28;20147;-84
2022/11/09 12:58:32;;;;;;;3.40;0.93;;;11.90;99.90;;;;;;5007321;28;20073;-83
2022/11/09 13:01:03;;;;;;;1.08;0.57;;;11.80;99.90;;;;;;5017749;28;20122;-83
2022/11/09 13:03:31;;;;;;;2.47;1.08;;;11.80;99.90;;;;;;5005582;28;20183;-83